createdAt,value
2018-09-15T00:00:21.285Z,15.97
2018-09-15T00:02:53.218Z,17.43
2018-09-15T00:05:24.443Z,19.30
2018-09-15T00:07:55.683Z,17.53
2018-09-15T00:10:26.944Z,16.80
2018-09-15T00:12:58.226Z,19.17
2018-09-15T00:15:29.458Z,16.53
2018-09-15T00:18:02.294Z,18.20
2018-09-15T00:20:33.532Z,18.37
2018-09-15T00:23:04.825Z,16.27
2018-09-15T00:25:36.024Z,18.23
2018-09-15T00:28:07.686Z,18.77
2018-09-15T00:30:39.168Z,17.40
2018-09-15T00:33:10.538Z,20.53
2018-09-15T00:35:41.751Z,19.43
2018-09-15T00:38:13.007Z,19.57
2018-09-15T00:40:44.303Z,18.37
2018-09-15T00:43:15.515Z,17.47
2018-09-15T00:45:46.741Z,19.10
2018-09-15T00:48:17.993Z,17.10
2018-09-15T00:50:49.221Z,16.73
2018-09-15T00:53:20.431Z,18.10
2018-09-15T00:55:51.668Z,18.20
2018-09-15T00:58:22.885Z,16.80
2018-09-15T01:00:54.119Z,18.57
2018-09-15T01:03:25.329Z,18.03
2018-09-15T01:05:56.679Z,16.63
2018-09-15T01:08:27.908Z,18.30
2018-09-15T01:10:59.145Z,17.83
2018-09-15T01:13:30.358Z,16.17
2018-09-15T01:16:01.633Z,18.10
2018-09-15T01:18:32.869Z,18.50
2018-09-15T01:21:04.096Z,17.17
2018-09-15T01:23:35.306Z,16.23
2018-09-15T01:26:06.617Z,16.90
2018-09-15T01:28:37.758Z,16.40
2018-09-15T01:31:08.982Z,17.83
2018-09-15T01:33:40.208Z,17.83
2018-09-15T01:36:11.440Z,16.27
2018-09-15T01:38:42.702Z,16.97
2018-09-15T01:41:13.909Z,17.23
2018-09-15T01:43:45.149Z,18.90
2018-09-15T01:46:16.359Z,19.70
2018-09-15T01:48:47.641Z,20.03
2018-09-15T01:51:18.855Z,16.10
2018-09-15T01:53:50.075Z,17.97
2018-09-15T01:56:21.294Z,17.73
2018-09-15T01:58:52.534Z,18.27
2018-09-15T02:01:23.767Z,17.00
2018-09-15T02:03:55.018Z,17.53
2018-09-15T02:06:26.262Z,17.50
2018-09-15T02:08:57.485Z,17.40
2018-09-15T02:11:28.715Z,17.33
2018-09-15T02:13:59.997Z,18.90
2018-09-15T02:16:31.277Z,20.20
2018-09-15T02:19:02.525Z,19.60
2018-09-15T02:21:33.753Z,19.53
2018-09-15T02:24:04.988Z,19.27
2018-09-15T02:26:36.215Z,18.47
2018-09-15T02:29:07.511Z,17.40
2018-09-15T02:31:38.699Z,18.80
2018-09-15T02:34:09.889Z,17.27
2018-09-15T02:36:41.175Z,18.47
2018-09-15T02:39:12.801Z,18.77
2018-09-15T02:41:44.010Z,17.70
2018-09-15T02:44:15.262Z,19.07
2018-09-15T02:46:46.472Z,19.77
2018-09-15T02:49:17.738Z,17.93
2018-09-15T02:51:48.953Z,18.40
2018-09-15T02:54:20.165Z,21.27
2018-09-15T02:56:51.381Z,17.83
2018-09-15T02:59:22.591Z,17.97
2018-09-15T03:01:53.796Z,21.87
2018-09-15T03:04:25.009Z,16.90
2018-09-15T03:06:56.221Z,18.43
2018-09-15T03:09:27.429Z,16.70
2018-09-15T03:11:58.651Z,19.13
2018-09-15T03:14:29.921Z,18.07
2018-09-15T03:17:01.116Z,20.00
2018-09-15T03:19:32.395Z,19.03
2018-09-15T03:22:03.606Z,20.37
2018-09-15T03:24:34.893Z,18.53
2018-09-15T03:27:06.113Z,18.80
2018-09-15T03:29:37.351Z,18.33
2018-09-15T03:32:08.553Z,19.50
2018-09-15T03:34:39.757Z,18.17
2018-09-15T03:37:10.983Z,18.10
2018-09-15T03:39:42.200Z,20.97
2018-09-15T03:42:13.405Z,18.37
2018-09-15T03:44:44.610Z,18.13
2018-09-15T03:47:15.822Z,18.00
2018-09-15T03:49:47.032Z,19.03
2018-09-15T03:52:18.239Z,17.80
2018-09-15T03:54:49.442Z,15.97
2018-09-15T03:57:20.670Z,16.57
2018-09-15T03:59:51.903Z,17.23
2018-09-15T04:02:23.101Z,16.03
2018-09-15T04:04:54.409Z,16.27
2018-09-15T04:07:25.637Z,17.40
2018-09-15T04:09:56.847Z,17.53
2018-09-15T04:12:28.054Z,18.77
2018-09-15T04:14:59.290Z,18.37
2018-09-15T04:17:30.491Z,17.77
2018-09-15T04:20:01.706Z,18.53
2018-09-15T04:22:33.009Z,17.57
2018-09-15T04:25:04.218Z,21.80
2018-09-15T04:27:35.437Z,19.87
2018-09-15T04:30:06.657Z,18.97
2018-09-15T04:32:37.877Z,22.03
2018-09-15T04:35:09.093Z,18.63
2018-09-15T04:37:40.314Z,15.93
2018-09-15T04:40:11.537Z,18.47
2018-09-15T04:42:42.734Z,19.50
2018-09-15T04:45:13.953Z,18.13
2018-09-15T04:47:45.178Z,19.67
2018-09-15T04:50:16.511Z,23.53
2018-09-15T04:52:47.774Z,20.87
2018-09-15T04:55:18.962Z,20.00
2018-09-15T04:57:50.666Z,18.40
2018-09-15T05:00:21.887Z,18.73
2018-09-15T05:02:53.116Z,18.10
2018-09-15T05:05:24.317Z,17.83
2018-09-15T05:07:55.549Z,19.17
2018-09-15T05:10:26.753Z,20.67
2018-09-15T05:12:58.064Z,19.53
2018-09-15T05:15:29.187Z,17.30
2018-09-15T05:18:00.417Z,17.60
2018-09-15T05:20:31.646Z,18.83
2018-09-15T05:23:02.859Z,19.43
2018-09-15T05:25:34.069Z,19.83
2018-09-15T05:28:05.311Z,17.23
2018-09-15T05:30:36.587Z,20.43
2018-09-15T05:33:07.847Z,19.00
2018-09-15T05:35:39.071Z,16.73
2018-09-15T05:38:10.289Z,16.13
2018-09-15T05:40:41.516Z,17.20
2018-09-15T05:43:12.726Z,20.17
2018-09-15T05:45:43.953Z,18.93
2018-09-15T05:48:15.190Z,17.63
2018-09-15T05:50:46.420Z,17.47
2018-09-15T05:53:17.639Z,17.70
2018-09-15T05:55:48.889Z,16.43
2018-09-15T05:58:20.249Z,16.27
2018-09-15T06:00:51.933Z,15.70
2018-09-15T06:03:23.308Z,16.60
2018-09-15T06:05:54.543Z,15.97
2018-09-15T06:08:25.865Z,16.20
2018-09-15T06:10:57.118Z,16.90
2018-09-15T06:13:28.442Z,16.47
2018-09-15T06:15:59.740Z,18.87
2018-09-15T06:18:30.957Z,15.93
2018-09-15T06:21:02.184Z,18.07
2018-09-15T06:23:33.437Z,16.83
2018-09-15T06:26:04.650Z,15.93
2018-09-15T06:28:35.925Z,15.07
2018-09-15T06:31:07.134Z,15.00
2018-09-15T06:33:38.354Z,16.40
2018-09-15T06:36:09.656Z,14.97
2018-09-15T06:38:40.873Z,13.73
2018-09-15T06:41:12.073Z,15.93
2018-09-15T06:43:43.289Z,14.13
2018-09-15T06:46:14.494Z,15.33
2018-09-15T06:48:45.705Z,14.37
2018-09-15T06:51:16.930Z,16.07
2018-09-15T06:53:48.177Z,15.17
2018-09-15T06:56:19.363Z,15.37
2018-09-15T06:58:50.575Z,16.67
2018-09-15T07:01:21.789Z,17.67
2018-09-15T07:03:52.987Z,16.03
2018-09-15T07:06:24.290Z,15.73
2018-09-15T07:08:55.508Z,15.67
2018-09-15T07:11:26.723Z,16.00
2018-09-15T07:13:58.015Z,15.67
2018-09-15T07:16:29.389Z,14.70
2018-09-15T07:19:00.730Z,14.67
2018-09-15T07:21:32.015Z,14.60
2018-09-15T07:24:03.234Z,15.33
2018-09-15T07:26:34.462Z,14.93
2018-09-15T07:29:05.657Z,16.37
2018-09-15T07:31:36.976Z,14.97
2018-09-15T07:34:08.134Z,14.93
2018-09-15T07:36:39.372Z,16.23
2018-09-15T07:39:11.109Z,18.70
2018-09-15T07:41:42.329Z,16.50
2018-09-15T07:44:13.561Z,15.97
2018-09-15T07:46:44.789Z,14.93
2018-09-15T07:49:16.042Z,17.43
2018-09-15T07:51:47.255Z,17.33
2018-09-15T07:54:18.483Z,17.00
2018-09-15T07:56:49.718Z,16.37
2018-09-15T07:59:20.984Z,15.87
2018-09-15T08:01:52.239Z,16.77
2018-09-15T08:04:23.426Z,18.00
2018-09-15T08:06:54.645Z,16.53
2018-09-15T08:09:56.707Z,16.50
2018-09-15T08:12:27.935Z,16.10
2018-09-15T08:14:59.195Z,14.63
2018-09-15T08:17:30.438Z,15.87
2018-09-15T08:20:01.651Z,17.63
2018-09-15T08:22:32.921Z,13.97
2018-09-15T08:25:04.142Z,13.83
2018-09-15T08:27:35.387Z,16.23
2018-09-15T08:30:06.614Z,14.93
2018-09-15T08:32:37.946Z,14.23
2018-09-15T08:35:09.153Z,14.97
2018-09-15T08:37:40.455Z,12.27
2018-09-15T08:40:11.645Z,13.93
2018-09-15T08:42:42.848Z,14.93
2018-09-15T08:45:14.179Z,13.83
2018-09-15T08:47:45.383Z,15.23
2018-09-15T08:50:16.617Z,14.00
2018-09-15T08:52:47.874Z,12.17
2018-09-15T08:55:19.086Z,11.97
2018-09-15T08:57:50.299Z,15.53
2018-09-15T09:00:21.676Z,11.50
2018-09-15T09:02:52.896Z,10.05
2018-09-15T09:05:24.151Z,10.15
2018-09-15T09:07:55.353Z,13.18
2018-09-15T09:10:26.672Z,10.98
2018-09-15T09:12:57.854Z,10.80
2018-09-15T09:15:29.129Z,10.63
2018-09-15T09:18:00.353Z,8.38
2018-09-15T09:20:31.557Z,9.83
2018-09-15T09:23:02.803Z,13.05
2018-09-15T09:25:34.027Z,8.08
2018-09-15T09:28:05.239Z,9.05
2018-09-15T09:30:36.561Z,9.05
2018-09-15T09:33:07.844Z,10.60
2018-09-15T09:35:39.019Z,8.15
2018-09-15T09:38:10.302Z,8.43
2018-09-15T09:40:41.482Z,9.40
2018-09-15T09:43:12.737Z,9.85
2018-09-15T09:45:44.012Z,10.35
2018-09-15T09:48:15.241Z,8.33
2018-09-15T09:50:46.476Z,9.68
2018-09-15T09:53:17.722Z,9.35
2018-09-15T09:55:49.031Z,8.30
2018-09-15T09:58:20.277Z,7.90
2018-09-15T10:00:58.019Z,8.33
2018-09-15T10:03:29.248Z,7.75
2018-09-15T10:06:00.487Z,8.98
2018-09-15T10:08:31.791Z,9.00
2018-09-15T10:11:02.997Z,9.08
2018-09-15T10:13:34.234Z,7.12
2018-09-15T10:16:05.476Z,9.60
2018-09-15T10:18:36.739Z,9.78
2018-09-15T10:21:08.056Z,8.35
2018-09-15T10:23:39.261Z,7.50
2018-09-15T10:26:10.473Z,7.25
2018-09-15T10:28:41.711Z,8.65
2018-09-15T10:31:13.026Z,7.92
2018-09-15T10:33:44.245Z,8.30
2018-09-15T10:36:15.448Z,6.92
2018-09-15T10:38:46.713Z,8.05
2018-09-15T10:41:17.938Z,7.75
2018-09-15T10:43:49.822Z,8.10
2018-09-15T10:46:21.042Z,7.62
2018-09-15T10:48:52.245Z,8.03
2018-09-15T10:51:23.479Z,8.38
2018-09-15T10:53:54.758Z,8.10
2018-09-15T10:56:26.035Z,8.40
2018-09-15T10:58:57.333Z,8.40
2018-09-15T11:01:28.508Z,7.05
2018-09-15T11:03:59.845Z,7.12
2018-09-15T11:06:31.065Z,6.62
2018-09-15T11:09:03.340Z,8.10
2018-09-15T11:11:34.570Z,6.72
2018-09-15T11:14:05.789Z,7.90
2018-09-15T11:16:37.118Z,6.62
2018-09-15T11:19:08.339Z,5.72
2018-09-15T11:21:39.577Z,7.58
2018-09-15T11:24:10.826Z,6.62
2018-09-15T11:26:42.079Z,9.43
2018-09-15T11:29:13.309Z,7.30
2018-09-15T11:31:44.546Z,9.63
2018-09-15T11:34:15.842Z,8.88
2018-09-15T11:36:47.034Z,8.18
2018-09-15T11:39:18.266Z,7.50
2018-09-15T11:41:49.474Z,7.05
2018-09-15T11:44:20.693Z,7.05
2018-09-15T11:46:51.898Z,6.67
2018-09-15T11:49:23.101Z,6.72
2018-09-15T11:51:54.327Z,6.78
2018-09-15T11:54:25.614Z,6.85
2018-09-15T11:56:56.801Z,6.75
2018-09-15T11:59:28.115Z,6.15
2018-09-15T12:01:59.392Z,6.83
2018-09-15T12:04:30.548Z,6.87
2018-09-15T12:07:01.768Z,5.33
2018-09-15T12:09:32.993Z,6.22
2018-09-15T12:12:04.244Z,7.80
2018-09-15T12:14:35.473Z,7.55
2018-09-15T12:17:06.733Z,7.15
2018-09-15T12:19:37.945Z,6.70
2018-09-15T12:22:09.174Z,8.38
2018-09-15T12:24:40.409Z,7.15
2018-09-15T12:27:11.664Z,5.70
2018-09-15T12:29:42.880Z,6.83
2018-09-15T12:32:14.125Z,6.53
2018-09-15T12:34:45.372Z,6.87
2018-09-15T12:37:16.647Z,8.83
2018-09-15T12:39:47.873Z,7.62
2018-09-15T12:42:19.088Z,8.15
2018-09-15T12:44:50.320Z,9.80
2018-09-15T12:47:21.559Z,7.97
2018-09-15T12:49:52.787Z,7.17
2018-09-15T12:52:24.091Z,6.35
2018-09-15T12:54:55.259Z,6.85
2018-09-15T12:57:26.478Z,7.03
2018-09-15T12:59:57.830Z,7.17
2018-09-15T13:02:29.108Z,8.35
2018-09-15T13:05:00.349Z,8.20
2018-09-15T13:07:31.581Z,7.10
2018-09-15T13:10:02.803Z,7.20
2018-09-15T13:12:34.125Z,6.80
2018-09-15T13:15:05.345Z,5.92
2018-09-15T13:17:36.637Z,5.87
2018-09-15T13:20:07.839Z,6.53
2018-09-15T13:22:39.076Z,6.83
2018-09-15T13:25:10.332Z,7.50
2018-09-15T13:27:41.568Z,6.60
2018-09-15T13:30:12.846Z,7.60
2018-09-15T13:32:44.029Z,6.33
2018-09-15T13:35:15.330Z,6.12
2018-09-15T13:37:46.575Z,8.68
2018-09-15T13:40:17.774Z,6.80
2018-09-15T13:42:49.002Z,7.12
2018-09-15T13:45:20.306Z,6.03
2018-09-15T13:47:51.539Z,6.28
2018-09-15T13:50:22.803Z,6.85
2018-09-15T13:52:54.020Z,5.60
2018-09-15T13:55:25.249Z,6.28
2018-09-15T13:57:56.478Z,9.15
2018-09-15T14:00:27.720Z,6.12
2018-09-15T14:02:58.941Z,6.67
2018-09-15T14:05:30.179Z,6.58
2018-09-15T14:08:01.426Z,6.60
2018-09-15T14:10:32.646Z,5.90
2018-09-15T14:13:03.855Z,5.30
2018-09-15T14:15:35.077Z,6.25
2018-09-15T14:18:06.295Z,5.17
2018-09-15T14:20:37.534Z,5.58
2018-09-15T14:23:08.763Z,6.08
2018-09-15T14:25:39.995Z,7.08
2018-09-15T14:28:11.231Z,5.90
2018-09-15T14:30:42.542Z,6.65
2018-09-15T14:33:13.759Z,6.17
2018-09-15T14:35:44.982Z,6.70
2018-09-15T14:38:16.214Z,7.70
2018-09-15T14:40:47.494Z,6.08
2018-09-15T14:43:18.726Z,7.65
2018-09-15T14:45:49.972Z,5.78
2018-09-15T14:48:21.212Z,5.45
2018-09-15T14:50:52.437Z,4.70
2018-09-15T14:53:23.734Z,4.70
2018-09-15T14:55:54.955Z,4.95
2018-09-15T14:58:26.183Z,5.37
2018-09-15T15:00:57.405Z,5.33
2018-09-15T15:03:28.788Z,5.10
2018-09-15T15:06:00.092Z,6.50
2018-09-15T15:08:31.337Z,6.28
2018-09-15T15:11:03.402Z,7.30
2018-09-15T15:13:34.691Z,6.92
2018-09-15T15:16:05.881Z,5.30
2018-09-15T15:18:37.129Z,5.72
2018-09-15T15:21:08.352Z,5.20
2018-09-15T15:23:39.625Z,6.30
2018-09-15T15:26:10.910Z,5.45
2018-09-15T15:28:42.278Z,5.00
2018-09-15T15:31:13.584Z,5.05
2018-09-15T15:33:44.902Z,4.53
2018-09-15T15:36:16.118Z,5.70
2018-09-15T15:38:47.341Z,5.07
2018-09-15T15:41:18.555Z,4.90
2018-09-15T15:43:49.815Z,5.30
2018-09-15T15:46:21.022Z,5.75
2018-09-15T15:48:52.238Z,9.95
2018-09-15T15:51:23.525Z,6.00
2018-09-15T15:53:54.683Z,5.10
2018-09-15T15:56:25.909Z,4.90
2018-09-15T15:58:57.135Z,4.83
2018-09-15T16:01:28.343Z,5.13
2018-09-15T16:03:59.570Z,5.67
2018-09-15T16:06:30.777Z,5.00
2018-09-15T16:09:02.118Z,5.05
2018-09-15T16:11:33.345Z,5.50
2018-09-15T16:14:04.585Z,5.20
2018-09-15T16:16:35.793Z,5.87
2018-09-15T16:19:07.051Z,8.58
2018-09-15T16:21:38.273Z,10.70
2018-09-15T16:24:09.503Z,7.65
2018-09-15T16:26:40.707Z,9.60
2018-09-15T16:29:11.970Z,5.97
2018-09-15T16:31:43.177Z,15.72
2018-09-15T16:34:14.407Z,9.30
2018-09-15T16:36:45.650Z,22.90
2018-09-15T16:39:16.869Z,8.07
2018-09-15T16:41:48.109Z,9.27
2018-09-15T16:44:19.317Z,8.73
2018-09-15T16:46:50.545Z,6.78
2018-09-15T16:49:21.833Z,6.90
2018-09-15T16:51:52.991Z,6.93
2018-09-15T16:54:24.205Z,8.40
2018-09-15T16:56:55.424Z,6.73
2018-09-15T16:59:26.678Z,8.53
2018-09-15T17:01:57.922Z,6.40
2018-09-15T17:04:29.138Z,5.42
2018-09-15T17:07:00.385Z,7.12
2018-09-15T17:09:31.634Z,7.90
2018-09-15T17:12:02.874Z,9.07
2018-09-15T17:14:34.107Z,11.50
2018-09-15T17:17:05.366Z,11.75
2018-09-15T17:19:36.682Z,10.03
2018-09-15T17:22:07.902Z,11.25
2018-09-15T17:24:39.151Z,14.15
2018-09-15T17:27:10.362Z,9.20
2018-09-15T17:29:42.419Z,9.13
2018-09-15T17:32:13.685Z,8.33
2018-09-15T17:34:44.910Z,8.83
2018-09-15T17:37:16.148Z,7.40
2018-09-15T17:39:47.414Z,7.87
2018-09-15T17:42:18.642Z,6.83
2018-09-15T17:44:49.878Z,7.17
2018-09-15T17:47:21.194Z,9.50
2018-09-15T17:49:52.398Z,7.53
2018-09-15T17:52:23.667Z,9.33
2018-09-15T17:54:55.070Z,8.03
2018-09-15T17:57:26.193Z,7.50
2018-09-15T17:59:57.413Z,7.80
2018-09-15T18:02:28.843Z,9.53
2018-09-15T18:05:00.080Z,7.87
2018-09-15T18:07:31.298Z,7.17
2018-09-15T18:10:02.561Z,8.10
2018-09-15T18:12:33.742Z,6.77
2018-09-15T18:15:05.028Z,7.27
2018-09-15T18:17:36.326Z,7.97
2018-09-15T18:20:07.565Z,7.20
2018-09-15T18:22:38.816Z,10.00
2018-09-15T18:25:10.027Z,7.67
2018-09-15T18:27:41.239Z,9.77
2018-09-15T18:30:12.539Z,7.73
2018-09-15T18:32:43.792Z,9.37
2018-09-15T18:35:15.028Z,8.07
2018-09-15T18:37:46.270Z,8.10
2018-09-15T18:40:17.485Z,9.23
2018-09-15T18:42:48.835Z,11.27
2018-09-15T18:45:19.986Z,10.43
2018-09-15T18:47:51.218Z,14.20
2018-09-15T18:50:22.489Z,10.67
2018-09-15T18:52:53.714Z,10.30
2018-09-15T18:55:24.949Z,9.77
2018-09-15T18:57:56.307Z,8.47
2018-09-15T19:00:27.558Z,11.40
2018-09-15T19:02:58.740Z,8.90
2018-09-15T19:05:29.991Z,9.57
2018-09-15T19:08:01.321Z,8.03
2018-09-15T19:10:32.539Z,9.00
2018-09-15T19:13:03.765Z,7.37
2018-09-15T19:15:34.985Z,8.20
2018-09-15T19:18:06.230Z,10.17
2018-09-15T19:20:37.590Z,10.23
2018-09-15T19:23:08.807Z,8.43
2018-09-15T19:25:40.030Z,11.13
2018-09-15T19:28:11.262Z,9.00
2018-09-15T19:30:42.521Z,8.33
2018-09-15T19:33:13.754Z,9.70
2018-09-15T19:35:44.957Z,8.47
2018-09-15T19:38:16.287Z,10.00
2018-09-15T19:40:47.521Z,8.53
2018-09-15T19:43:19.027Z,11.10
2018-09-15T19:45:50.237Z,7.80
2018-09-15T19:48:21.466Z,8.13
2018-09-15T19:50:52.669Z,8.57
2018-09-15T19:53:23.885Z,8.40
2018-09-15T19:55:55.125Z,8.10
2018-09-15T19:58:26.339Z,10.20
2018-09-15T20:00:57.548Z,8.97
2018-09-15T20:03:28.807Z,10.13
2018-09-15T20:06:00.040Z,10.23
2018-09-15T20:08:31.283Z,8.13
2018-09-15T20:11:02.607Z,11.30
2018-09-15T20:13:33.857Z,8.90
2018-09-15T20:16:05.070Z,8.83
2018-09-15T20:18:36.373Z,9.20
2018-09-15T20:21:07.590Z,9.10
2018-09-15T20:23:38.827Z,10.23
2018-09-15T20:26:10.045Z,10.17
2018-09-15T20:28:41.266Z,10.33
2018-09-15T20:31:12.531Z,9.90
2018-09-15T20:33:43.781Z,10.00
2018-09-15T20:36:15.095Z,10.13
2018-09-15T20:38:46.406Z,11.80
2018-09-15T20:41:17.622Z,9.13
2018-09-15T20:43:48.867Z,9.07
2018-09-15T20:46:20.086Z,13.27
2018-09-15T20:48:51.317Z,12.50
2018-09-15T20:51:22.543Z,10.53
2018-09-15T20:53:53.877Z,10.90
2018-09-15T20:56:25.106Z,10.77
2018-09-15T20:58:56.325Z,11.90
2018-09-15T21:01:27.549Z,9.80
2018-09-15T21:03:58.766Z,11.43
2018-09-15T21:06:29.998Z,8.97
2018-09-15T21:09:01.215Z,11.60
2018-09-15T21:11:32.496Z,9.97
2018-09-15T21:14:03.705Z,11.63
2018-09-15T21:16:34.967Z,10.70
2018-09-15T21:19:06.193Z,10.27
2018-09-15T21:21:37.433Z,10.97
2018-09-15T21:24:08.657Z,13.07
2018-09-15T21:26:39.876Z,12.27
2018-09-15T21:29:11.080Z,12.57
2018-09-15T21:31:42.317Z,12.57
2018-09-15T21:34:13.591Z,13.93
2018-09-15T21:36:44.867Z,11.60
2018-09-15T21:39:16.112Z,10.70
2018-09-15T21:41:47.364Z,10.97
2018-09-15T21:44:18.595Z,9.67
2018-09-15T21:46:49.894Z,10.87
2018-09-15T21:49:21.141Z,10.60
2018-09-15T21:51:52.373Z,10.90
2018-09-15T21:54:23.583Z,11.93
2018-09-15T21:56:54.839Z,11.60
2018-09-15T21:59:26.045Z,11.47
2018-09-15T22:01:57.266Z,11.07
2018-09-15T22:04:28.525Z,12.53
2018-09-15T22:06:59.740Z,11.63
2018-09-15T22:09:31.021Z,14.40
2018-09-15T22:12:02.291Z,11.30
2018-09-15T22:14:33.539Z,11.47
2018-09-15T22:17:04.746Z,11.43
2018-09-15T22:19:35.991Z,12.00
2018-09-15T22:22:07.284Z,12.77
2018-09-15T22:24:38.478Z,13.50
2018-09-15T22:27:09.711Z,16.93
2018-09-15T22:29:40.909Z,12.20
2018-09-15T22:32:12.133Z,13.57
2018-09-15T22:34:43.355Z,11.27
2018-09-15T22:37:14.576Z,11.83
2018-09-15T22:39:45.806Z,13.03
2018-09-15T22:42:17.015Z,13.47
2018-09-15T22:44:48.257Z,11.67
2018-09-15T22:47:19.478Z,12.70
2018-09-15T22:49:50.714Z,12.57
2018-09-15T22:52:21.939Z,13.13
2018-09-15T22:54:53.149Z,14.00
2018-09-15T22:57:24.409Z,13.73
2018-09-15T22:59:56.207Z,13.00
2018-09-15T23:02:27.420Z,12.20
2018-09-15T23:04:58.635Z,13.17
2018-09-15T23:07:29.852Z,12.60
2018-09-15T23:10:01.094Z,13.10
2018-09-15T23:12:32.313Z,12.60
2018-09-15T23:15:03.547Z,13.93
2018-09-15T23:17:34.765Z,17.40
2018-09-15T23:20:06.083Z,13.13
2018-09-15T23:22:37.306Z,11.80
2018-09-15T23:25:08.568Z,12.50
2018-09-15T23:27:39.807Z,12.93
2018-09-15T23:30:11.013Z,12.17
2018-09-15T23:32:42.265Z,12.27
2018-09-15T23:35:13.510Z,12.23
2018-09-15T23:37:44.728Z,11.23
2018-09-15T23:40:15.962Z,10.77
2018-09-15T23:42:47.165Z,11.87
2018-09-15T23:45:18.393Z,11.40
2018-09-15T23:47:49.658Z,11.67
2018-09-15T23:50:20.891Z,11.93
2018-09-15T23:52:52.102Z,12.17
2018-09-15T23:55:23.317Z,11.60
2018-09-15T23:57:54.545Z,12.03
